createdAt,value
2023-03-30T00:01:09.917Z,101018.72
2023-03-30T00:03:41.183Z,101012.34
2023-03-30T00:06:10.620Z,101016.72
2023-03-30T00:08:39.104Z,101013.06
2023-03-30T00:11:09.008Z,101016.63
2023-03-30T00:13:38.712Z,101015.47
2023-03-30T00:16:08.844Z,101000.81
2023-03-30T00:18:39.417Z,101011.75
2023-03-30T00:21:09.499Z,101012.63
2023-03-30T00:23:37.850Z,101005.50
2023-03-30T00:26:07.383Z,101017.91
2023-03-30T00:28:35.419Z,101014.34
2023-03-30T00:31:04.759Z,101010.63
2023-03-30T00:33:44.684Z,101013.34
2023-03-30T00:36:15.722Z,101015.22
2023-03-30T00:38:43.944Z,101002.97
2023-03-30T00:41:12.265Z,101020.59
2023-03-30T00:43:56.386Z,101020.44
2023-03-30T00:46:26.859Z,101017.75
2023-03-30T00:48:58.243Z,101007.81
2023-03-30T00:51:27.864Z,101008.66
2023-03-30T00:54:01.062Z,100989.03
2023-03-30T00:56:31.713Z,101007.66
2023-03-30T00:59:01.741Z,100979.66
2023-03-30T01:01:34.668Z,101006.69
2023-03-30T01:04:04.053Z,101004.97
2023-03-30T01:06:32.709Z,100998.69
2023-03-30T01:09:01.086Z,101000.56
2023-03-30T01:11:29.219Z,101002.41
2023-03-30T01:14:01.915Z,100977.09
2023-03-30T01:16:40.585Z,101008.78
2023-03-30T01:19:30.543Z,101011.22
2023-03-30T01:22:30.706Z,101017.31
2023-03-30T01:25:25.128Z,101003.81
2023-03-30T01:28:24.426Z,101000.25
2023-03-30T01:31:12.691Z,101009.38
2023-03-30T01:34:17.311Z,100997.56
2023-03-30T01:37:18.725Z,100997.72
2023-03-30T01:39:55.640Z,101003.13
2023-03-30T01:42:27.188Z,101001.97
2023-03-30T01:45:06.119Z,100999.13
2023-03-30T01:47:39.409Z,100979.38
2023-03-30T01:50:12.815Z,100918.53
2023-03-30T01:52:50.319Z,100991.88
2023-03-30T01:55:23.837Z,100976.97
2023-03-30T01:57:59.388Z,100998.16
2023-03-30T02:00:29.663Z,101001.69
2023-03-30T02:03:01.621Z,100963.19
2023-03-30T02:05:31.982Z,101000.56
2023-03-30T02:08:03.046Z,100998.84
2023-03-30T02:10:35.547Z,101001.56
2023-03-30T02:13:04.162Z,100968.44
2023-03-30T02:15:36.672Z,100999.72
2023-03-30T02:18:05.109Z,101006.09
2023-03-30T02:20:34.531Z,101009.53
2023-03-30T02:23:06.213Z,101008.78
2023-03-30T02:25:38.361Z,100995.28
2023-03-30T02:28:07.641Z,100998.16
2023-03-30T02:30:37.204Z,100994.47
2023-03-30T02:33:07.486Z,100990.91
2023-03-30T02:35:52.594Z,100982.81
2023-03-30T02:38:46.642Z,100992.75
2023-03-30T02:41:28.403Z,100992.03
2023-03-30T02:44:07.972Z,100968.84
2023-03-30T02:46:53.830Z,100995.72
2023-03-30T02:49:31.581Z,100988.63
2023-03-30T02:52:07.991Z,100964.47
2023-03-30T02:54:51.943Z,100985.78
2023-03-30T02:57:32.905Z,100984.94
2023-03-30T03:00:27.280Z,100963.88
2023-03-30T03:03:00.299Z,100986.22
2023-03-30T03:05:32.652Z,100980.81
2023-03-30T03:08:16.964Z,100978.13
2023-03-30T03:10:47.061Z,100978.97
2023-03-30T03:13:20.597Z,100975.41
2023-03-30T03:15:49.681Z,100966.47
2023-03-30T03:18:18.504Z,100966.47
2023-03-30T03:20:46.809Z,100964.47
2023-03-30T03:23:14.943Z,100956.38
2023-03-30T03:25:50.369Z,100958.22
2023-03-30T03:28:22.322Z,100929.66
2023-03-30T03:30:54.196Z,100954.69
2023-03-30T03:33:25.874Z,100953.81
2023-03-30T03:36:08.833Z,100961.06
2023-03-30T03:38:41.262Z,100956.66
2023-03-30T03:41:09.815Z,100908.44
2023-03-30T03:43:40.227Z,100952.97
2023-03-30T03:46:08.230Z,100959.34
2023-03-30T03:48:36.357Z,100950.25
2023-03-30T03:51:05.589Z,100943.03
2023-03-30T03:53:35.521Z,100938.59
2023-03-30T03:56:08.211Z,100939.47
2023-03-30T03:58:36.645Z,100934.94
2023-03-30T04:01:06.343Z,100939.47
2023-03-30T04:03:34.393Z,100939.47
2023-03-30T04:06:02.856Z,100932.34
2023-03-30T04:08:31.408Z,100931.81
2023-03-30T04:11:18.426Z,100946.13
2023-03-30T04:14:18.714Z,100948.00
2023-03-30T04:17:14.888Z,100951.69
2023-03-30T04:20:19.776Z,100943.59
2023-03-30T04:23:05.981Z,100936.34
2023-03-30T04:25:36.908Z,100945.41
2023-03-30T04:28:29.829Z,100952.81
2023-03-30T04:31:18.473Z,100949.25
2023-03-30T04:34:06.506Z,100950.81
2023-03-30T04:36:46.552Z,100945.56
2023-03-30T04:39:38.611Z,100934.19
2023-03-30T04:42:22.607Z,100935.75
2023-03-30T04:45:20.682Z,100933.94
2023-03-30T04:47:57.631Z,100933.75
2023-03-30T04:50:27.169Z,100931.81
2023-03-30T04:53:15.981Z,100933.75
2023-03-30T04:56:02.710Z,100944.44
2023-03-30T04:58:51.959Z,100938.34
2023-03-30T05:01:22.629Z,100940.03
2023-03-30T05:04:08.512Z,100950.81
2023-03-30T05:06:57.321Z,100942.72
2023-03-30T05:09:48.587Z,100940.03
2023-03-30T05:12:49.060Z,100930.25
2023-03-30T05:15:28.498Z,100929.09
2023-03-30T05:18:19.388Z,100930.78
2023-03-30T05:20:53.303Z,100923.56
2023-03-30T05:23:28.748Z,100891.03
2023-03-30T05:26:07.260Z,100924.13
2023-03-30T05:28:47.854Z,100918.72
2023-03-30T05:31:39.850Z,100921.28
2023-03-30T05:34:40.441Z,100923.97
2023-03-30T05:37:31.826Z,100913.34
2023-03-30T05:40:10.797Z,100919.28
2023-03-30T05:42:57.842Z,100916.47
2023-03-30T05:45:44.042Z,100914.63
2023-03-30T05:48:31.474Z,100910.78
2023-03-30T05:51:28.769Z,100916.16
2023-03-30T05:54:18.037Z,100917.84
2023-03-30T05:57:05.944Z,100913.31
2023-03-30T05:59:44.243Z,100910.63
2023-03-30T06:02:35.584Z,100870.13
2023-03-30T06:05:09.280Z,100902.41
2023-03-30T06:07:37.962Z,100902.25
2023-03-30T06:10:08.511Z,100865.16
2023-03-30T06:12:39.392Z,100902.81
2023-03-30T06:15:13.076Z,100891.16
2023-03-30T06:17:46.936Z,100892.00
2023-03-30T06:20:15.127Z,100878.91
2023-03-30T06:22:46.736Z,100888.28
2023-03-30T06:25:20.465Z,100892.72
2023-03-30T06:27:50.386Z,100885.31
2023-03-30T06:30:18.719Z,100882.44
2023-03-30T06:32:50.275Z,100885.03
2023-03-30T06:35:21.350Z,100884.00
2023-03-30T06:37:51.010Z,100882.03
2023-03-30T06:40:19.276Z,100892.69
2023-03-30T06:42:51.687Z,100884.59
2023-03-30T06:45:29.542Z,100890.84
2023-03-30T06:47:57.649Z,100898.94
2023-03-30T06:50:25.778Z,100897.09
2023-03-30T06:53:05.125Z,100904.19
2023-03-30T06:55:42.193Z,100903.19
2023-03-30T06:58:15.400Z,100900.22
2023-03-30T07:00:43.674Z,100902.22
2023-03-30T07:03:38.047Z,100903.63
2023-03-30T07:06:21.382Z,100905.88
2023-03-30T07:08:50.318Z,100915.16
2023-03-30T07:11:23.512Z,100908.28
2023-03-30T07:13:56.264Z,100903.44
2023-03-30T07:16:24.285Z,100897.59
2023-03-30T07:18:52.299Z,100905.28
2023-03-30T07:21:20.771Z,100898.56
2023-03-30T07:23:48.738Z,100899.28
2023-03-30T07:26:27.513Z,100893.97
2023-03-30T07:29:02.606Z,100888.97
2023-03-30T07:31:30.698Z,100892.94
2023-03-30T07:33:59.032Z,100883.97
2023-03-30T07:36:31.372Z,100874.00
2023-03-30T07:38:59.757Z,100886.19
2023-03-30T07:41:27.986Z,100882.19
2023-03-30T07:43:58.787Z,100886.31
2023-03-30T07:46:28.513Z,100881.78
2023-03-30T07:48:57.502Z,100885.31
2023-03-30T07:51:27.934Z,100882.31
2023-03-30T07:54:05.394Z,100877.75
2023-03-30T07:56:44.710Z,100881.16
2023-03-30T07:59:14.199Z,100882.69
2023-03-30T08:01:46.449Z,100881.53
2023-03-30T08:04:39.468Z,100884.25
2023-03-30T08:07:07.680Z,100888.50
2023-03-30T08:09:35.945Z,100881.13
2023-03-30T08:12:04.553Z,100880.25
2023-03-30T08:14:32.747Z,100880.78
2023-03-30T08:17:02.078Z,100875.06
2023-03-30T08:19:30.166Z,100878.50
2023-03-30T08:21:58.112Z,100876.47
2023-03-30T08:24:26.180Z,100878.34
2023-03-30T08:26:54.051Z,100880.19
2023-03-30T08:29:22.423Z,100877.34
2023-03-30T08:31:52.184Z,100872.91
2023-03-30T08:34:21.554Z,100877.16
2023-03-30T08:36:49.493Z,100873.31
2023-03-30T08:39:17.447Z,100871.47
2023-03-30T08:42:18.464Z,100867.03
2023-03-30T08:44:53.875Z,100871.47
2023-03-30T08:47:32.052Z,100874.16
2023-03-30T08:50:08.543Z,100863.34
2023-03-30T08:52:38.151Z,100866.06
2023-03-30T08:55:06.973Z,100872.31
2023-03-30T08:57:52.594Z,100863.03
2023-03-30T09:00:29.895Z,100854.06
2023-03-30T09:03:08.658Z,100852.22
2023-03-30T09:05:44.563Z,100855.91
2023-03-30T09:08:20.051Z,100849.66
2023-03-30T09:10:50.890Z,100842.56
2023-03-30T09:13:21.777Z,100846.09
2023-03-30T09:15:57.024Z,100850.34
2023-03-30T09:18:30.475Z,100824.41
2023-03-30T09:21:03.140Z,100852.91
2023-03-30T09:23:32.260Z,100847.50
2023-03-30T09:26:10.123Z,100853.59
2023-03-30T09:28:48.528Z,100844.63
2023-03-30T09:31:22.263Z,100841.63
2023-03-30T09:34:01.105Z,100837.28
2023-03-30T09:36:39.123Z,100826.88
2023-03-30T09:39:12.090Z,100834.66
2023-03-30T09:41:52.645Z,100822.16
2023-03-30T09:44:27.136Z,100821.28
2023-03-30T09:46:59.580Z,100827.56
2023-03-30T09:49:29.205Z,100819.44
2023-03-30T09:52:04.491Z,100810.88
2023-03-30T09:54:39.561Z,100814.25
2023-03-30T09:57:22.945Z,100817.84
2023-03-30T09:59:52.764Z,100789.59
2023-03-30T10:02:22.169Z,100823.94
2023-03-30T10:05:03.506Z,100814.94
2023-03-30T10:07:37.799Z,100739.44
2023-03-30T10:10:17.769Z,100815.97
2023-03-30T10:12:46.487Z,100811.56
2023-03-30T10:15:18.959Z,100807.00
2023-03-30T10:17:48.835Z,100785.66
2023-03-30T10:20:25.322Z,100754.94
2023-03-30T10:22:57.333Z,100783.63
2023-03-30T10:25:28.518Z,100784.66
2023-03-30T10:27:58.483Z,100787.38
2023-03-30T10:30:28.479Z,100775.69
2023-03-30T10:32:59.547Z,100777.72
2023-03-30T10:35:33.282Z,100775.28
2023-03-30T10:38:03.778Z,100775.75
2023-03-30T10:40:36.651Z,100782.16
2023-03-30T10:43:07.385Z,100787.75
2023-03-30T10:45:40.546Z,100775.69
2023-03-30T10:48:30.956Z,100784.31
2023-03-30T10:51:07.744Z,100769.03
2023-03-30T10:53:46.136Z,100778.09
2023-03-30T10:56:25.930Z,100767.19
2023-03-30T10:59:08.203Z,100782.78
2023-03-30T11:01:42.964Z,100772.28
2023-03-30T11:04:23.637Z,100778.09
2023-03-30T11:06:56.810Z,100778.91
2023-03-30T11:09:32.348Z,100784.31
2023-03-30T11:12:04.213Z,100773.50
2023-03-30T11:14:42.433Z,100777.91
2023-03-30T11:17:19.294Z,100767.94
2023-03-30T11:19:52.060Z,100766.25
2023-03-30T11:22:33.567Z,100758.28
2023-03-30T11:25:09.564Z,100759.97
2023-03-30T11:27:43.762Z,100758.97
2023-03-30T11:30:18.752Z,100762.69
2023-03-30T11:32:54.722Z,100763.53
2023-03-30T11:35:31.659Z,100758.13
2023-03-30T11:38:04.587Z,100759.84
2023-03-30T11:40:42.155Z,100726.38
2023-03-30T11:43:11.859Z,100760.34
2023-03-30T11:45:53.032Z,100764.94
2023-03-30T11:48:38.482Z,100764.22
2023-03-30T11:51:28.179Z,100754.72
2023-03-30T11:54:06.208Z,100767.47
2023-03-30T11:56:41.072Z,100756.50
2023-03-30T11:59:18.411Z,100759.72
2023-03-30T12:02:06.233Z,100747.16
2023-03-30T12:04:41.684Z,100702.66
2023-03-30T12:07:22.098Z,100755.75
2023-03-30T12:09:55.690Z,100743.91
2023-03-30T12:12:32.726Z,100753.88
2023-03-30T12:15:13.307Z,100744.91
2023-03-30T12:17:47.155Z,100747.63
2023-03-30T12:20:36.230Z,100739.50
2023-03-30T12:23:18.389Z,100744.06
2023-03-30T12:26:03.863Z,100734.41
2023-03-30T12:29:04.940Z,100739.81
2023-03-30T12:31:50.850Z,100731.75
2023-03-30T12:34:23.412Z,100730.44
2023-03-30T12:36:56.235Z,100721.94
2023-03-30T12:39:31.154Z,100726.50
2023-03-30T12:42:06.833Z,100732.09
2023-03-30T12:44:49.246Z,100721.56
2023-03-30T12:47:40.310Z,100727.13
2023-03-30T12:50:19.179Z,100715.63
2023-03-30T12:53:04.477Z,100715.94
2023-03-30T12:55:47.308Z,100695.94
2023-03-30T12:58:37.560Z,100707.28
2023-03-30T13:01:34.428Z,100695.94
2023-03-30T13:04:07.705Z,100698.09
2023-03-30T13:06:38.297Z,100698.25
2023-03-30T13:09:38.830Z,100692.16
2023-03-30T13:12:37.967Z,100693.16
2023-03-30T13:15:23.213Z,100692.31
2023-03-30T13:18:01.355Z,100684.03
2023-03-30T13:20:31.885Z,100676.94
2023-03-30T13:23:16.276Z,100680.31
2023-03-30T13:25:49.119Z,100661.38
2023-03-30T13:28:55.974Z,100654.13
2023-03-30T13:31:37.933Z,100665.31
2023-03-30T13:34:19.335Z,100659.91
2023-03-30T13:37:01.035Z,100651.28
2023-03-30T13:39:39.903Z,100647.25
2023-03-30T13:42:31.468Z,100648.94
2023-03-30T13:45:05.427Z,100645.53
2023-03-30T13:47:52.702Z,100643.84
2023-03-30T13:50:27.906Z,100644.53
2023-03-30T13:52:58.693Z,100602.31
2023-03-30T13:55:33.233Z,100633.22
2023-03-30T13:58:06.172Z,100633.09
2023-03-30T14:00:45.219Z,100624.25
2023-03-30T14:03:31.647Z,100625.47
2023-03-30T14:06:04.364Z,100594.63
2023-03-30T14:08:35.651Z,100624.31
2023-03-30T14:11:14.692Z,100623.84
2023-03-30T14:13:43.858Z,100617.59
2023-03-30T14:16:17.860Z,100617.28
2023-03-30T14:18:46.571Z,100613.72
2023-03-30T14:21:18.638Z,100612.00
2023-03-30T14:23:50.753Z,100611.16
2023-03-30T14:26:23.633Z,100591.97
2023-03-30T14:28:56.660Z,100601.84
2023-03-30T14:31:27.278Z,100612.19
2023-03-30T14:33:56.090Z,100569.59
2023-03-30T14:36:25.922Z,100607.41
2023-03-30T14:38:57.295Z,100602.31
2023-03-30T14:41:27.811Z,100573.16
2023-03-30T14:43:58.337Z,100595.84
2023-03-30T14:46:29.676Z,100586.38
2023-03-30T14:48:59.186Z,100581.94
2023-03-30T14:51:38.075Z,100579.56
2023-03-30T14:54:08.516Z,100574.31
2023-03-30T14:56:36.715Z,100561.91
2023-03-30T14:59:04.966Z,100570.06
2023-03-30T15:01:34.356Z,100576.78
2023-03-30T15:04:07.686Z,100561.75
2023-03-30T15:06:38.890Z,100537.44
2023-03-30T15:09:14.828Z,100567.16
2023-03-30T15:11:44.594Z,100570.03
2023-03-30T15:14:18.874Z,100565.47
2023-03-30T15:16:50.629Z,100560.88
2023-03-30T15:19:27.828Z,100557.34
2023-03-30T15:21:59.992Z,100491.63
2023-03-30T15:24:32.547Z,100559.34
2023-03-30T15:27:04.100Z,100562.91
2023-03-30T15:29:33.327Z,100561.06
2023-03-30T15:32:07.211Z,100564.63
2023-03-30T15:34:35.290Z,100554.66
2023-03-30T15:37:04.661Z,100553.81
2023-03-30T15:39:36.098Z,100561.06
2023-03-30T15:42:06.441Z,100554.97
2023-03-30T15:44:37.048Z,100539.53
2023-03-30T15:47:11.014Z,100543.59
2023-03-30T15:49:43.227Z,100539.19
2023-03-30T15:52:17.802Z,100536.66
2023-03-30T15:54:52.591Z,100539.53
2023-03-30T15:57:24.950Z,100518.13
2023-03-30T15:59:56.492Z,100532.44
2023-03-30T16:02:36.173Z,100526.63
2023-03-30T16:05:05.729Z,100530.84
2023-03-30T16:07:36.150Z,100529.91
2023-03-30T16:10:04.499Z,100528.16
2023-03-30T16:12:32.509Z,100528.31
2023-03-30T16:15:00.590Z,100530.00
2023-03-30T16:17:28.707Z,100520.94
2023-03-30T16:19:56.639Z,100528.16
2023-03-30T16:22:24.681Z,100519.00
2023-03-30T16:24:54.068Z,100523.06
2023-03-30T16:27:22.076Z,100524.22
2023-03-30T16:29:50.037Z,100515.75
2023-03-30T16:32:18.133Z,100515.63
2023-03-30T16:34:46.274Z,100517.19
2023-03-30T16:37:14.458Z,100524.31
2023-03-30T16:39:42.706Z,100519.75
2023-03-30T16:42:12.047Z,100518.91
2023-03-30T16:44:40.014Z,100510.78
2023-03-30T16:47:08.350Z,100504.13
2023-03-30T16:49:36.354Z,100509.22
2023-03-30T16:52:04.438Z,100505.00
2023-03-30T16:54:33.176Z,100507.69
2023-03-30T16:57:02.212Z,100483.63
2023-03-30T16:59:33.747Z,100503.13
2023-03-30T17:02:03.277Z,100504.13
2023-03-30T17:04:31.208Z,100501.59
2023-03-30T17:06:59.366Z,100501.91
2023-03-30T17:09:27.261Z,100491.09
2023-03-30T17:11:55.294Z,100493.13
2023-03-30T17:14:24.310Z,100490.56
2023-03-30T17:16:53.742Z,100481.22
2023-03-30T17:19:21.690Z,100489.19
2023-03-30T17:21:49.608Z,100492.03
2023-03-30T17:24:17.655Z,100488.66
2023-03-30T17:26:45.957Z,100487.81
2023-03-30T17:29:14.006Z,100487.66
2023-03-30T17:31:45.691Z,100483.25
2023-03-30T17:34:15.722Z,100475.63
2023-03-30T17:36:43.797Z,100487.81
2023-03-30T17:39:14.536Z,100464.94
2023-03-30T17:41:42.510Z,100491.34
2023-03-30T17:44:10.563Z,100483.25
2023-03-30T17:46:39.145Z,100480.56
2023-03-30T17:49:18.167Z,100480.56
2023-03-30T17:51:47.137Z,100485.28
2023-03-30T17:54:15.529Z,100483.44
2023-03-30T17:56:43.658Z,100483.44
2023-03-30T17:59:12.152Z,100487.97
2023-03-30T18:01:40.268Z,100481.72
2023-03-30T18:04:09.193Z,100485.59
2023-03-30T18:06:38.851Z,100452.19
2023-03-30T18:09:10.810Z,100492.53
2023-03-30T18:11:38.828Z,100476.47
2023-03-30T18:14:06.855Z,100479.00
2023-03-30T18:16:36.440Z,100487.13
2023-03-30T18:19:04.457Z,100454.75
2023-03-30T18:21:32.438Z,100492.34
2023-03-30T18:24:03.056Z,100486.94
2023-03-30T18:26:33.284Z,100486.94
2023-03-30T18:29:01.252Z,100484.25
2023-03-30T18:31:29.282Z,100480.84
2023-03-30T18:33:57.267Z,100481.72
2023-03-30T18:36:25.185Z,100486.13
2023-03-30T18:38:55.080Z,100486.13
2023-03-30T18:41:24.570Z,100483.44
2023-03-30T18:43:52.581Z,100477.16
2023-03-30T18:46:20.893Z,100486.13
2023-03-30T18:48:48.816Z,100479.88
2023-03-30T18:51:16.912Z,100475.47
2023-03-30T18:53:44.867Z,100469.06
2023-03-30T18:56:13.832Z,100474.28
2023-03-30T18:58:43.408Z,100483.25
2023-03-30T19:01:13.259Z,100469.59
2023-03-30T19:03:42.146Z,100467.72
2023-03-30T19:06:13.844Z,100467.56
2023-03-30T19:08:43.537Z,100464.03
2023-03-30T19:11:14.988Z,100465.56
2023-03-30T19:13:44.463Z,100460.16
2023-03-30T19:16:12.330Z,100455.75
2023-03-30T19:18:40.474Z,100448.97
2023-03-30T19:21:10.095Z,100457.44
2023-03-30T19:23:38.199Z,100451.03
2023-03-30T19:26:07.440Z,100449.16
2023-03-30T19:28:35.913Z,100451.88
2023-03-30T19:31:13.270Z,100435.28
2023-03-30T19:33:41.654Z,100438.53
2023-03-30T19:36:11.021Z,100441.22
2023-03-30T19:38:39.434Z,100434.81
2023-03-30T19:41:08.144Z,100435.66
2023-03-30T19:43:36.559Z,100432.13
2023-03-30T19:46:04.995Z,100427.88
2023-03-30T19:48:34.346Z,100393.81
2023-03-30T19:51:02.432Z,100423.31
2023-03-30T19:53:30.593Z,100419.91
2023-03-30T19:55:58.548Z,100417.22
2023-03-30T19:58:26.536Z,100417.06
2023-03-30T20:00:55.485Z,100420.78
2023-03-30T20:03:23.675Z,100414.69
2023-03-30T20:05:53.144Z,100412.66
2023-03-30T20:08:24.397Z,100406.41
2023-03-30T20:10:53.565Z,100400.47
2023-03-30T20:13:23.910Z,100401.00
2023-03-30T20:15:55.831Z,100394.75
2023-03-30T20:18:23.927Z,100399.16
2023-03-30T20:20:53.337Z,100396.44
2023-03-30T20:23:21.456Z,100393.06
2023-03-30T20:25:50.532Z,100393.06
2023-03-30T20:28:18.729Z,100387.66
2023-03-30T20:30:47.529Z,100380.72
2023-03-30T20:33:15.574Z,100388.50
2023-03-30T20:35:43.665Z,100383.25
2023-03-30T20:38:12.972Z,100376.00
2023-03-30T20:40:41.004Z,100376.00
2023-03-30T20:43:10.620Z,100381.41
2023-03-30T20:45:46.403Z,100377.84
2023-03-30T20:48:26.192Z,100375.16
2023-03-30T20:50:55.783Z,100370.91
2023-03-30T20:53:25.889Z,100369.91
2023-03-30T20:55:53.815Z,100366.19
2023-03-30T20:58:23.365Z,100370.91
2023-03-30T21:00:52.050Z,100362.97
2023-03-30T21:03:20.435Z,100363.81
2023-03-30T21:05:48.731Z,100365.50
2023-03-30T21:08:16.705Z,100371.75
2023-03-30T21:10:46.350Z,100358.75
2023-03-30T21:13:15.053Z,100357.56
2023-03-30T21:15:42.976Z,100358.56
2023-03-30T21:18:11.102Z,100351.63
2023-03-30T21:20:39.368Z,100324.03
2023-03-30T21:23:07.471Z,100357.41
2023-03-30T21:25:35.474Z,100345.59
2023-03-30T21:28:04.961Z,100350.81
2023-03-30T21:30:34.729Z,100341.00
2023-03-30T21:33:02.934Z,100343.03
2023-03-30T21:35:30.996Z,100337.63
2023-03-30T21:37:59.045Z,100340.50
2023-03-30T21:40:26.965Z,100332.41
2023-03-30T21:42:55.006Z,100336.94
2023-03-30T21:45:24.624Z,100338.66
2023-03-30T21:47:52.827Z,100341.34
2023-03-30T21:50:20.964Z,100336.78
2023-03-30T21:52:48.918Z,100330.38
2023-03-30T21:55:17.046Z,100333.06
2023-03-30T21:57:44.908Z,100333.06
2023-03-30T22:00:13.968Z,100335.94
2023-03-30T22:02:44.405Z,100333.06
2023-03-30T22:05:12.388Z,100323.25
2023-03-30T22:07:40.380Z,100331.22
2023-03-30T22:10:09.062Z,100320.56
2023-03-30T22:12:37.153Z,100325.81
2023-03-30T22:15:05.939Z,100321.94
2023-03-30T22:17:41.475Z,100298.59
2023-03-30T22:20:12.489Z,100320.44
2023-03-30T22:22:41.264Z,100318.44
2023-03-30T22:25:10.197Z,100313.88
2023-03-30T22:27:38.613Z,100311.00
2023-03-30T22:30:08.270Z,100302.22
2023-03-30T22:32:36.413Z,100290.41
2023-03-30T22:35:04.664Z,100290.22
2023-03-30T22:37:34.078Z,100296.84
2023-03-30T22:40:02.034Z,100293.44
2023-03-30T22:42:29.982Z,100285.34
2023-03-30T22:44:57.941Z,100289.03
2023-03-30T22:47:25.872Z,100280.41
2023-03-30T22:49:53.813Z,100272.47
2023-03-30T22:52:22.327Z,100282.97
2023-03-30T22:54:51.671Z,100280.25
2023-03-30T22:57:19.784Z,100275.19
2023-03-30T22:59:47.944Z,100268.91
2023-03-30T23:02:16.007Z,100274.66
2023-03-30T23:04:47.280Z,100270.41
2023-03-30T23:07:15.224Z,100274.28
2023-03-30T23:09:47.279Z,100264.66
2023-03-30T23:12:16.733Z,100265.34
2023-03-30T23:14:44.745Z,100261.09
2023-03-30T23:17:12.825Z,100260.44
2023-03-30T23:19:40.696Z,100251.47
2023-03-30T23:22:08.602Z,100249.94
2023-03-30T23:24:36.815Z,100238.28
2023-03-30T23:27:04.851Z,100250.13
2023-03-30T23:29:34.197Z,100249.44
2023-03-30T23:32:02.150Z,100244.19
2023-03-30T23:34:32.025Z,100248.06
2023-03-30T23:37:00.593Z,100247.22
2023-03-30T23:39:28.867Z,100247.38
2023-03-30T23:41:57.474Z,100255.66
2023-03-30T23:44:25.474Z,100240.63
2023-03-30T23:46:58.314Z,100238.06
2023-03-30T23:49:26.492Z,100236.53
2023-03-30T23:51:54.501Z,100242.97
2023-03-30T23:54:23.250Z,100250.38
2023-03-30T23:56:57.184Z,100243.31
2023-03-30T23:59:25.701Z,100243.63
